aviador You're here:

KMHS Decoded Metar

MOUNT SHASTA in CA, USA
Report Time2017-10-17 19:56:00
UTC Time2017-10-17 20:20:55
Flight Rules vfr VFR
WindCalm
Visibility9999 m
Phenomena:N/A
Clouds:N/A
Expected CloudBase > 10,000 ft AGL from Temp-Dew spread
CeilingNone
Temp22°C (ISA +14)
Dew Point-3°C (19% RH)
AAT19.7°C
QNH1022 hPa
Density Alt4,928 ft
Elevation3,537 ft
Report Wrong Elevation
Raw Report
METAR KMHS 171956Z AUTO 00000KT 10SM CLR 22/M03 A3019 RMK AO2 SLP226
T02221033=

Extra information for KMHS:More info

Metar Taf Metar & Taf Last 4 Metars F.Rules Stats Wind Profile Meteogram Temp Stats Airport Information Weather charts Add Link Nearby VenuesMetar ALERT Operation Metar Decoded Social comments

AIRNAV info for KMHS